createdAt,value
2023-05-06T00:00:01.573Z,99033.75
2023-05-06T00:01:07.955Z,99032.88
2023-05-06T00:02:11.644Z,99026.75
2023-05-06T00:03:14.824Z,99031.03
2023-05-06T00:04:18.657Z,99025.84
2023-05-06T00:05:22.985Z,99020.56
2023-05-06T00:06:27.688Z,99018.06
2023-05-06T00:07:30.825Z,99024.03
2023-05-06T00:08:34.462Z,99027.44
2023-05-06T00:09:36.861Z,99015.31
2023-05-06T00:10:40.655Z,99005.72
2023-05-06T00:11:43.430Z,99012.56
2023-05-06T00:12:47.484Z,99009.00
2023-05-06T00:13:50.306Z,99021.03
2023-05-06T00:14:53.941Z,99017.63
2023-05-06T00:15:56.754Z,99019.31
2023-05-06T00:17:00.417Z,99020.16
2023-05-06T00:18:03.429Z,99023.63
2023-05-06T00:19:07.684Z,99011.41
2023-05-06T00:20:11.238Z,99007.13
2023-05-06T00:21:16.560Z,99013.19
2023-05-06T00:22:19.198Z,99007.81
2023-05-06T00:23:22.950Z,99010.41
2023-05-06T00:24:25.704Z,99010.41
2023-05-06T00:25:29.390Z,99016.47
2023-05-06T00:26:32.273Z,99012.22
2023-05-06T00:27:36.096Z,99010.41
2023-05-06T00:28:38.773Z,99009.44
2023-05-06T00:29:42.445Z,99004.25
2023-05-06T00:30:45.098Z,99000.81
2023-05-06T00:31:50.268Z,99010.25
2023-05-06T00:32:53.148Z,99012.00
2023-05-06T00:33:56.979Z,99005.78
2023-05-06T00:34:59.597Z,99000.50
2023-05-06T00:36:03.235Z,99012.63
2023-05-06T00:37:07.543Z,99006.56
2023-05-06T00:38:13.542Z,99000.50
2023-05-06T00:39:16.711Z,99004.72
2023-05-06T00:40:20.349Z,98987.13
2023-05-06T00:41:23.360Z,98996.47
2023-05-06T00:42:27.231Z,98995.59
2023-05-06T00:43:29.927Z,98995.41
2023-05-06T00:44:33.701Z,98984.09
2023-05-06T00:45:37.061Z,98981.47
2023-05-06T00:46:41.878Z,98984.06
2023-05-06T00:47:45.273Z,98961.22
2023-05-06T00:48:49.052Z,98984.75
2023-05-06T00:49:52.029Z,98985.56
2023-05-06T00:50:55.978Z,98980.31
2023-05-06T00:51:59.775Z,98985.47
2023-05-06T00:53:05.718Z,98990.72
2023-05-06T00:54:08.530Z,98980.28
2023-05-06T00:55:12.366Z,98988.06
2023-05-06T00:56:15.826Z,98975.16
2023-05-06T00:57:19.767Z,98984.47
2023-05-06T00:58:22.850Z,98973.19
2023-05-06T00:59:26.630Z,98971.38
2023-05-06T01:00:29.362Z,98978.28
2023-05-06T01:01:33.567Z,98977.31
2023-05-06T01:02:46.558Z,98984.22
2023-05-06T01:03:52.359Z,98977.31
2023-05-06T01:04:55.891Z,98990.16
2023-05-06T01:06:09.200Z,98984.91
2023-05-06T01:07:23.817Z,98996.16
2023-05-06T01:08:34.346Z,98993.50
2023-05-06T01:09:43.104Z,98997.75
2023-05-06T01:10:52.539Z,98989.03
2023-05-06T01:12:02.785Z,98993.31
2023-05-06T01:13:13.837Z,98994.88
2023-05-06T01:14:26.726Z,98991.47
2023-05-06T01:15:36.042Z,98988.69
2023-05-06T01:16:41.738Z,98992.84
2023-05-06T01:17:47.475Z,98990.22
2023-05-06T01:18:51.952Z,98985.88
2023-05-06T01:20:00.214Z,98980.56
2023-05-06T01:21:05.512Z,98975.09
2023-05-06T01:22:09.849Z,98975.97
2023-05-06T01:23:15.101Z,98976.88
2023-05-06T01:24:19.169Z,98961.97
2023-05-06T01:25:24.172Z,98969.91
2023-05-06T01:26:28.568Z,98968.06
2023-05-06T01:27:31.239Z,98965.59
2023-05-06T01:28:34.823Z,98968.97
2023-05-06T01:29:37.872Z,98974.97
2023-05-06T01:30:48.672Z,98972.31
2023-05-06T01:31:52.927Z,98973.94
2023-05-06T01:33:05.742Z,98974.75
2023-05-06T01:34:14.672Z,98995.34
2023-05-06T01:35:22.784Z,98992.66
2023-05-06T01:36:33.582Z,98987.44
2023-05-06T01:37:43.647Z,98991.56
2023-05-06T01:38:53.549Z,98989.78
2023-05-06T01:40:01.643Z,98999.09
2023-05-06T01:41:08.611Z,99002.34
2023-05-06T01:42:15.673Z,98999.00
2023-05-06T01:43:19.994Z,98985.22
2023-05-06T01:44:24.695Z,98986.75
2023-05-06T01:45:31.093Z,98988.34
2023-05-06T01:46:35.524Z,98994.50
2023-05-06T01:47:39.936Z,98992.91
2023-05-06T01:48:46.965Z,98990.91
2023-05-06T01:49:49.956Z,98992.59
2023-05-06T01:50:53.820Z,98991.75
2023-05-06T01:51:56.797Z,98994.34
2023-05-06T01:53:01.219Z,98984.38
2023-05-06T01:54:06.241Z,99006.22
2023-05-06T01:55:10.758Z,99008.59
2023-05-06T01:56:14.000Z,99013.72
2023-05-06T01:57:17.715Z,99011.94
2023-05-06T01:58:20.840Z,99011.03
2023-05-06T01:59:24.409Z,99015.19
2023-05-06T02:00:26.962Z,99016.78
2023-05-06T02:01:30.874Z,99003.75
2023-05-06T02:02:33.680Z,99006.47
2023-05-06T02:03:37.814Z,99002.84
2023-05-06T02:04:40.628Z,98993.25
2023-05-06T02:05:44.446Z,98998.50
2023-05-06T02:06:47.205Z,99000.94
2023-05-06T02:07:50.869Z,98995.59
2023-05-06T02:08:53.290Z,98996.34
2023-05-06T02:09:58.101Z,98993.63
2023-05-06T02:11:01.174Z,98995.34
2023-05-06T02:12:05.336Z,99000.28
2023-05-06T02:13:08.530Z,99005.50
2023-05-06T02:14:12.415Z,98998.59
2023-05-06T02:15:14.625Z,99002.00
2023-05-06T02:16:18.417Z,99000.22
2023-05-06T02:17:21.207Z,99003.63
2023-05-06T02:18:25.636Z,98997.56
2023-05-06T02:19:28.603Z,98989.69
2023-05-06T02:20:32.229Z,98998.28
2023-05-06T02:21:54.721Z,98964.28
2023-05-06T02:22:58.308Z,98982.00
2023-05-06T02:24:00.889Z,98987.16
2023-05-06T02:25:06.824Z,98991.53
2023-05-06T02:26:09.430Z,98999.34
2023-05-06T02:27:13.180Z,98991.53
2023-05-06T02:28:15.799Z,98994.06
2023-05-06T02:29:19.789Z,98987.22
2023-05-06T02:30:22.251Z,98985.34
2023-05-06T02:31:26.015Z,98975.66
2023-05-06T02:32:28.828Z,98981.78
2023-05-06T02:33:32.520Z,98966.03
2023-05-06T02:34:35.206Z,98980.81
2023-05-06T02:35:38.860Z,98977.28
2023-05-06T02:36:41.022Z,98991.88
2023-05-06T02:37:44.576Z,98950.97
2023-05-06T02:38:46.861Z,98986.78
2023-05-06T02:39:51.023Z,98982.44
2023-05-06T02:40:55.209Z,98994.53
2023-05-06T02:41:58.826Z,98987.47
2023-05-06T02:43:01.741Z,98991.69
2023-05-06T02:44:05.587Z,98979.56
2023-05-06T02:45:09.684Z,98998.63
2023-05-06T02:46:14.269Z,99006.38
2023-05-06T02:47:16.938Z,99003.69
2023-05-06T02:48:20.689Z,99006.25
2023-05-06T02:49:23.366Z,99004.44
2023-05-06T02:50:26.943Z,99013.00
2023-05-06T02:51:29.248Z,99009.47
2023-05-06T02:52:33.578Z,98998.09
2023-05-06T02:53:36.252Z,99001.59
2023-05-06T02:54:39.907Z,98995.56
2023-05-06T02:55:42.145Z,98980.03
2023-05-06T02:56:47.333Z,98968.44
2023-05-06T02:57:50.055Z,99000.78
2023-05-06T02:58:54.717Z,98986.16
2023-05-06T02:59:57.519Z,98979.34
2023-05-06T03:01:01.194Z,98967.34
2023-05-06T03:02:03.980Z,98961.16
2023-05-06T03:03:07.867Z,98954.38
2023-05-06T03:04:10.670Z,98951.84
2023-05-06T03:05:14.348Z,98969.69
2023-05-06T03:06:17.190Z,98962.75
2023-05-06T03:07:20.874Z,98967.78
2023-05-06T03:08:23.496Z,98965.34
2023-05-06T03:09:27.180Z,98957.50
2023-05-06T03:10:30.056Z,98956.84
2023-05-06T03:11:34.210Z,98968.88
2023-05-06T03:12:38.713Z,98972.31
2023-05-06T03:13:42.338Z,98954.16
2023-05-06T03:14:44.663Z,98955.84
2023-05-06T03:15:54.567Z,98953.22
2023-05-06T03:16:57.469Z,98960.97
2023-05-06T03:18:01.299Z,98954.75
2023-05-06T03:19:04.160Z,98958.13
2023-05-06T03:20:09.972Z,98964.94
2023-05-06T03:21:13.027Z,98958.09
2023-05-06T03:22:16.871Z,98957.13
2023-05-06T03:23:19.880Z,98944.34
2023-05-06T03:24:23.538Z,98939.09
2023-05-06T03:25:25.891Z,98951.13
2023-05-06T03:26:29.665Z,98939.09
2023-05-06T03:27:32.313Z,98944.94
2023-05-06T03:28:37.445Z,98935.38
2023-05-06T03:29:40.067Z,98956.06
2023-05-06T03:30:43.649Z,98962.13
2023-05-06T03:31:46.004Z,98976.75
2023-05-06T03:32:50.111Z,98973.22
2023-05-06T03:33:53.010Z,98974.09
2023-05-06T03:34:56.679Z,98976.53
2023-05-06T03:35:59.564Z,98982.66
2023-05-06T03:37:03.509Z,98953.78
2023-05-06T03:38:06.340Z,98978.25
2023-05-06T03:39:10.619Z,98984.03
2023-05-06T03:40:13.603Z,98972.94
2023-05-06T03:41:18.296Z,98976.16
2023-05-06T03:42:20.962Z,98982.13
2023-05-06T03:43:24.531Z,98977.56
2023-05-06T03:44:28.493Z,99003.03
2023-05-06T03:45:32.188Z,98997.69
2023-05-06T03:46:34.974Z,99004.00
2023-05-06T03:47:38.819Z,99009.13
2023-05-06T03:48:41.585Z,99020.81
2023-05-06T03:49:45.554Z,98999.88
2023-05-06T03:50:48.277Z,99020.41
2023-05-06T03:51:53.571Z,99026.31
2023-05-06T03:52:56.440Z,99031.16
2023-05-06T03:54:00.360Z,99035.44
2023-05-06T03:55:03.619Z,99031.69
2023-05-06T03:56:08.196Z,99025.66
2023-05-06T03:57:10.948Z,99064.66
2023-05-06T03:58:14.794Z,99034.53
2023-05-06T03:59:17.771Z,99025.13
2023-05-06T04:00:24.037Z,99032.81
2023-05-06T04:01:26.798Z,56366.97
2023-05-06T04:02:30.842Z,56366.97
2023-05-06T04:03:33.886Z,56366.97
2023-05-06T04:04:37.712Z,56366.97
2023-05-06T04:05:40.677Z,56366.97
2023-05-06T04:06:45.110Z,56366.97
2023-05-06T04:07:47.828Z,56366.97
2023-05-06T04:09:50.081Z,56366.97
2023-05-06T04:11:16.793Z,56366.97
2023-05-06T04:13:19.920Z,56366.97
2023-05-06T04:15:23.532Z,56366.97
2023-05-06T04:16:46.376Z,56366.97
2023-05-06T04:18:49.674Z,56366.97
2023-05-06T04:20:52.372Z,56366.97
2023-05-06T04:22:54.952Z,56366.97
2023-05-06T04:24:57.894Z,56366.97
2023-05-06T04:27:00.184Z,56366.97
2023-05-06T04:29:02.525Z,56366.97
2023-05-06T04:31:08.878Z,56366.97
2023-05-06T04:33:11.321Z,56366.97
2023-05-06T04:35:13.781Z,56366.97
2023-05-06T04:37:16.381Z,56366.97
2023-05-06T04:39:18.579Z,56366.97
2023-05-06T04:41:22.413Z,56366.97
2023-05-06T04:43:24.925Z,56366.97
2023-05-06T04:45:27.616Z,56366.97
2023-05-06T04:47:32.398Z,56366.97
2023-05-06T04:49:35.253Z,56366.97
2023-05-06T04:51:37.496Z,56366.97
2023-05-06T04:53:41.207Z,56366.97
2023-05-06T04:55:43.787Z,56366.97
2023-05-06T04:57:46.174Z,56366.97
2023-05-06T04:59:48.631Z,56366.97
2023-05-06T05:01:52.316Z,56366.97
2023-05-06T05:03:55.031Z,56366.97
2023-05-06T05:05:57.360Z,56366.97
2023-05-06T05:07:59.729Z,56366.97
2023-05-06T05:10:01.934Z,56366.97
2023-05-06T05:12:07.041Z,56366.97
2023-05-06T05:14:09.399Z,56366.97
2023-05-06T05:16:11.932Z,56366.97
2023-05-06T05:18:15.654Z,56366.97
2023-05-06T05:20:18.213Z,56366.97
2023-05-06T05:22:20.415Z,56366.97
2023-05-06T05:24:22.682Z,56366.97
2023-05-06T05:26:24.906Z,56366.97
2023-05-06T05:28:27.219Z,56366.97
2023-05-06T05:30:29.495Z,56366.97
2023-05-06T05:32:33.248Z,56366.97
2023-05-06T05:34:35.593Z,56366.97
2023-05-06T05:36:37.993Z,56366.97
2023-05-06T05:38:40.970Z,56366.97
2023-05-06T05:40:43.541Z,56366.97
2023-05-06T05:42:46.264Z,56366.97
2023-05-06T05:44:48.539Z,56366.97
2023-05-06T05:46:51.342Z,56366.97
2023-05-06T05:48:55.308Z,56366.97
2023-05-06T05:50:57.897Z,56366.97
2023-05-06T05:53:00.256Z,56366.97
2023-05-06T05:55:02.559Z,56366.97
2023-05-06T05:57:07.152Z,56366.97
2023-05-06T05:59:10.299Z,56366.97
2023-05-06T06:01:13.326Z,56366.97
2023-05-06T06:03:17.125Z,56366.97
2023-05-06T06:05:19.492Z,56366.97
2023-05-06T06:07:21.912Z,56366.97
2023-05-06T06:09:24.199Z,56366.97
2023-05-06T06:11:27.176Z,56366.97
2023-05-06T06:13:30.048Z,56366.97
2023-05-06T06:15:32.596Z,56366.97
2023-05-06T06:17:35.134Z,56366.97
2023-05-06T06:19:38.930Z,56366.97
2023-05-06T06:21:41.354Z,56366.97
2023-05-06T06:23:43.662Z,56366.97
2023-05-06T06:25:46.222Z,56366.97
2023-05-06T06:27:48.608Z,56366.97
2023-05-06T06:29:51.613Z,56366.97
2023-05-06T06:31:56.205Z,56366.97
2023-05-06T06:34:00.008Z,56366.97
2023-05-06T06:36:02.562Z,56366.97
2023-05-06T06:38:05.057Z,56366.97
2023-05-06T06:40:08.057Z,56366.97
2023-05-06T06:50:51.032Z,99035.19
2023-05-06T06:53:31.469Z,99040.75
2023-05-06T06:54:34.198Z,99039.22
2023-05-06T06:55:37.907Z,99059.28
2023-05-06T06:56:40.833Z,99043.66
2023-05-06T06:57:44.431Z,99053.81
2023-05-06T06:58:46.954Z,99057.78
2023-05-06T06:59:52.670Z,99065.25
2023-05-06T07:00:55.278Z,99043.59
2023-05-06T07:01:59.176Z,99059.13
2023-05-06T07:03:01.860Z,99062.03
2023-05-06T07:04:07.250Z,99062.28
2023-05-06T07:05:10.696Z,99058.75
2023-05-06T07:06:15.000Z,99050.47
2023-05-06T07:07:17.629Z,99053.88
2023-05-06T07:08:22.543Z,99066.53
2023-05-06T07:09:27.003Z,99054.81
2023-05-06T07:10:30.926Z,99050.06
2023-05-06T07:11:33.731Z,99059.47
2023-05-06T07:12:37.954Z,99061.84
2023-05-06T07:13:40.661Z,99078.38
2023-05-06T07:14:44.620Z,99064.09
2023-05-06T07:15:47.337Z,99068.31
2023-05-06T07:16:51.751Z,99068.19
2023-05-06T07:17:54.716Z,99066.09
2023-05-06T07:18:58.501Z,99067.75
2023-05-06T07:20:01.120Z,99069.16
2023-05-06T07:21:04.871Z,99058.09
2023-05-06T07:22:07.452Z,99069.72
2023-05-06T07:23:11.114Z,99064.28
2023-05-06T07:24:13.437Z,99068.63
2023-05-06T07:25:18.732Z,99068.00
2023-05-06T07:26:21.846Z,99074.16
2023-05-06T07:27:27.529Z,99080.22
2023-05-06T07:28:31.766Z,99077.63
2023-05-06T07:29:35.916Z,99075.81
2023-05-06T07:30:40.076Z,99075.50
2023-05-06T07:31:42.683Z,99075.66
2023-05-06T07:32:46.564Z,99079.16
2023-05-06T07:33:49.190Z,99080.13
2023-05-06T07:34:52.964Z,99083.38
2023-05-06T07:35:55.246Z,99083.50
2023-05-06T07:36:58.843Z,99087.00
2023-05-06T07:38:02.283Z,99089.44
2023-05-06T07:39:05.033Z,99086.06
2023-05-06T07:40:09.786Z,99082.69
2023-05-06T07:41:13.744Z,99075.06
2023-05-06T07:42:17.671Z,99072.53
2023-05-06T07:43:20.255Z,99073.41
2023-05-06T07:44:24.016Z,99082.63
2023-05-06T07:45:27.871Z,99076.72
2023-05-06T07:46:30.807Z,99077.78
2023-05-06T07:47:35.288Z,99069.28
2023-05-06T07:48:38.092Z,99082.53
2023-05-06T07:49:41.796Z,99080.75
2023-05-06T07:50:45.549Z,99080.63
2023-05-06T07:51:48.119Z,99080.88
2023-05-06T07:52:52.000Z,99078.19
2023-05-06T07:53:54.575Z,99073.34
2023-05-06T07:54:58.473Z,99071.69
2023-05-06T07:56:02.891Z,99073.22
2023-05-06T07:57:08.098Z,99078.88
2023-05-06T07:58:11.696Z,99071.34
2023-05-06T07:59:15.877Z,99081.22
2023-05-06T08:00:19.430Z,99077.88
2023-05-06T08:01:23.042Z,99086.69
2023-05-06T08:02:25.978Z,99073.97
2023-05-06T08:03:30.230Z,99077.53
2023-05-06T08:04:32.996Z,99085.31
2023-05-06T08:05:36.823Z,99088.94
2023-05-06T08:06:39.233Z,99088.94
2023-05-06T08:07:44.036Z,99086.19
2023-05-06T08:08:47.632Z,99083.75
2023-05-06T08:09:51.582Z,99088.84
2023-05-06T08:10:54.423Z,99095.16
2023-05-06T08:11:58.599Z,99089.25
2023-05-06T08:13:03.309Z,99094.44
2023-05-06T08:14:07.005Z,99092.16
2023-05-06T08:15:10.707Z,99088.84
2023-05-06T08:16:14.656Z,99100.09
2023-05-06T08:17:17.649Z,99101.06
2023-05-06T08:18:23.191Z,99097.69
2023-05-06T08:19:29.425Z,99098.59
2023-05-06T08:20:33.311Z,99095.28
2023-05-06T08:21:36.275Z,99102.06
2023-05-06T08:22:40.882Z,99104.75
2023-05-06T08:23:43.603Z,99100.63
2023-05-06T08:24:47.367Z,99103.94
2023-05-06T08:25:50.439Z,99094.47
2023-05-06T08:26:57.380Z,99088.91
2023-05-06T08:28:00.336Z,99098.03
2023-05-06T08:29:05.526Z,99089.44
2023-05-06T08:30:09.987Z,99101.72
2023-05-06T08:31:14.130Z,99108.75
2023-05-06T08:32:17.311Z,99089.38
2023-05-06T08:33:21.560Z,99093.53
2023-05-06T08:34:24.763Z,99090.25
2023-05-06T08:35:28.609Z,99108.91
2023-05-06T08:36:31.517Z,99105.31
2023-05-06T08:37:36.034Z,99114.31
2023-05-06T08:38:38.750Z,99100.41
2023-05-06T08:39:42.586Z,99115.41
2023-05-06T08:40:45.772Z,99109.81
2023-05-06T08:41:52.539Z,99128.34
2023-05-06T08:42:57.973Z,99115.28
2023-05-06T08:44:06.895Z,99128.66
2023-05-06T08:45:11.786Z,99123.06
2023-05-06T08:46:15.917Z,99129.75
2023-05-06T08:47:19.415Z,99128.03
2023-05-06T08:48:23.364Z,99117.75
2023-05-06T08:49:26.440Z,99124.22
2023-05-06T08:50:30.542Z,99142.47
2023-05-06T08:51:35.559Z,99140.41
2023-05-06T08:52:39.954Z,99141.59
2023-05-06T08:53:47.823Z,99120.34
2023-05-06T08:54:58.155Z,99123.38
2023-05-06T08:56:04.345Z,99122.75
2023-05-06T08:57:12.162Z,99126.59
2023-05-06T08:58:17.640Z,99136.53
2023-05-06T08:59:27.035Z,99135.00
2023-05-06T09:00:34.954Z,99129.16
2023-05-06T09:01:38.144Z,56366.97
2023-05-06T09:02:43.546Z,56366.97
2023-05-06T09:03:48.571Z,56366.97
2023-05-06T09:04:54.799Z,56366.97
2023-05-06T09:05:58.392Z,56366.97
2023-05-06T09:07:02.088Z,56366.97
2023-05-06T09:08:05.168Z,56366.97
2023-05-06T09:09:09.070Z,56366.97
2023-05-06T09:10:14.542Z,56366.97
2023-05-06T09:11:29.587Z,56366.97
2023-05-06T09:13:01.511Z,56366.97
2023-05-06T09:14:10.234Z,56366.97
2023-05-06T09:15:15.831Z,56366.97
2023-05-06T09:16:29.068Z,56366.97
2023-05-06T09:17:34.621Z,56366.97
2023-05-06T09:18:37.662Z,56366.97
2023-05-06T09:20:35.227Z,99156.41
2023-05-06T09:23:45.042Z,99173.25
2023-05-06T09:24:56.569Z,99173.25
2023-05-06T09:26:04.202Z,99169.13
2023-05-06T09:27:08.432Z,99174.84
2023-05-06T09:28:15.626Z,99184.38
2023-05-06T09:29:18.465Z,99177.69
2023-05-06T09:30:27.764Z,99180.78
2023-05-06T09:31:47.962Z,99175.06
2023-05-06T09:32:55.225Z,99185.53
2023-05-06T09:34:02.098Z,99173.34
2023-05-06T09:35:06.971Z,99192.97
2023-05-06T09:36:13.686Z,99195.72
2023-05-06T09:37:17.735Z,99173.25
2023-05-06T09:38:22.091Z,99184.94
2023-05-06T09:39:29.369Z,99204.84
2023-05-06T09:40:32.480Z,99207.44
2023-05-06T09:41:37.571Z,99204.47
2023-05-06T09:42:40.639Z,99200.22
2023-05-06T09:43:49.245Z,99188.00
2023-05-06T09:44:55.817Z,99199.25
2023-05-06T09:46:00.264Z,99189.38
2023-05-06T09:47:04.651Z,99181.19
2023-05-06T09:48:09.877Z,99198.78
2023-05-06T09:49:15.414Z,99185.75
2023-05-06T09:50:19.621Z,99183.69
2023-05-06T09:51:23.094Z,99192.47
2023-05-06T09:52:28.833Z,99200.19
2023-05-06T09:53:33.386Z,99205.34
2023-05-06T09:54:39.425Z,99203.81
2023-05-06T09:55:43.201Z,99198.50
2023-05-06T09:56:49.572Z,99209.09
2023-05-06T09:57:54.296Z,99207.50
2023-05-06T09:58:58.884Z,99211.75
2023-05-06T10:00:07.458Z,99204.16
2023-05-06T10:01:32.460Z,99214.00
2023-05-06T10:02:41.898Z,99216.00
2023-05-06T10:03:47.858Z,99215.25
2023-05-06T10:04:51.662Z,99216.34
2023-05-06T10:05:57.642Z,99222.41
2023-05-06T10:07:04.266Z,99214.78
2023-05-06T10:08:10.997Z,99208.94
2023-05-06T10:09:14.835Z,99215.00
2023-05-06T10:10:21.455Z,99215.94
2023-05-06T10:11:26.669Z,99217.28
2023-05-06T10:12:31.257Z,99220.75
2023-05-06T10:13:35.831Z,99213.22
2023-05-06T10:14:40.288Z,99220.97
2023-05-06T10:15:45.161Z,99208.75
2023-05-06T10:16:51.146Z,99220.25
2023-05-06T10:17:54.670Z,99212.34
2023-05-06T10:19:00.170Z,99220.94
2023-05-06T10:20:05.082Z,99226.56
2023-05-06T10:21:18.776Z,99236.03
2023-05-06T10:22:34.269Z,99239.50
2023-05-06T10:23:44.767Z,99241.38
2023-05-06T10:24:56.351Z,99225.56
2023-05-06T10:26:08.028Z,99230.09
2023-05-06T10:27:13.173Z,99235.94
2023-05-06T10:28:25.697Z,99237.09
2023-05-06T10:29:37.855Z,99232.63
2023-05-06T10:30:42.684Z,99231.50
2023-05-06T10:31:50.605Z,99237.72
2023-05-06T10:32:57.612Z,99237.56
2023-05-06T10:34:04.511Z,99235.91
2023-05-06T10:35:13.786Z,99224.81
2023-05-06T10:36:20.699Z,99226.97
2023-05-06T10:37:27.352Z,99227.91
2023-05-06T10:38:34.266Z,99230.78
2023-05-06T10:39:42.123Z,99239.34
2023-05-06T10:40:46.220Z,99236.13
2023-05-06T10:41:52.368Z,99227.06
2023-05-06T10:43:21.147Z,99251.19
2023-05-06T10:44:58.792Z,99237.63
2023-05-06T10:46:03.808Z,99243.00
2023-05-06T10:47:09.337Z,99243.88
2023-05-06T10:48:12.988Z,99248.31
2023-05-06T10:49:21.116Z,99239.19
2023-05-06T10:50:29.247Z,99239.56
2023-05-06T10:51:34.051Z,99233.91
2023-05-06T10:52:45.068Z,99238.47
2023-05-06T10:54:13.187Z,99243.09
2023-05-06T10:55:31.064Z,99241.28
2023-05-06T10:56:37.294Z,99246.00
2023-05-06T10:57:43.074Z,99226.94
2023-05-06T10:58:49.677Z,99256.47
2023-05-06T10:59:55.029Z,99239.19
2023-05-06T11:00:59.825Z,99253.84
2023-05-06T11:02:09.875Z,99250.88
2023-05-06T11:03:15.461Z,99235.59
2023-05-06T11:04:20.918Z,99234.53
2023-05-06T11:05:26.047Z,99247.91
2023-05-06T11:06:38.482Z,99246.53
2023-05-06T11:07:42.671Z,99232.22
2023-05-06T11:08:57.432Z,99253.22
2023-05-06T11:10:04.273Z,99241.41
2023-05-06T11:11:41.281Z,99234.19
2023-05-06T11:12:49.424Z,99259.03
2023-05-06T11:13:54.597Z,99261.72
2023-05-06T11:15:21.613Z,99257.06
2023-05-06T11:16:49.137Z,99257.78
2023-05-06T11:18:53.165Z,56366.97
2023-05-06T11:21:29.556Z,56366.97
2023-05-06T11:22:41.352Z,99260.81
2023-05-06T11:24:13.659Z,99261.69
2023-05-06T11:25:41.539Z,99259.31
2023-05-06T11:26:44.705Z,99257.78
2023-05-06T11:27:51.137Z,99261.63
2023-05-06T11:28:54.180Z,99260.97
2023-05-06T11:29:58.372Z,99267.19
2023-05-06T11:31:02.273Z,99265.75
2023-05-06T11:32:09.242Z,99266.84
2023-05-06T11:33:18.360Z,99271.44
2023-05-06T11:34:26.307Z,99269.00
2023-05-06T11:35:36.766Z,99256.94
2023-05-06T11:36:55.155Z,99261.03
2023-05-06T11:37:59.389Z,99269.91
2023-05-06T11:39:08.547Z,99244.63
2023-05-06T11:40:18.739Z,99261.94
2023-05-06T11:41:23.731Z,99261.16
2023-05-06T11:42:28.637Z,99247.31
2023-05-06T11:43:33.487Z,99249.78
2023-05-06T11:44:39.050Z,99242.28
2023-05-06T11:45:43.237Z,99257.16
2023-05-06T11:46:47.286Z,99248.09
2023-05-06T11:47:54.899Z,99261.31
2023-05-06T11:48:58.682Z,99262.31
2023-05-06T11:50:07.877Z,99267.06
2023-05-06T11:51:11.409Z,99271.63
2023-05-06T11:52:15.384Z,99266.59
2023-05-06T11:53:20.114Z,99263.31
2023-05-06T11:54:26.471Z,99268.31
2023-05-06T11:55:29.331Z,99270.38
2023-05-06T11:56:43.168Z,99266.44
2023-05-06T11:57:48.058Z,99270.78
2023-05-06T11:58:52.954Z,99268.88
2023-05-06T11:59:56.851Z,99267.09
2023-05-06T12:01:01.462Z,99269.19
2023-05-06T12:02:07.168Z,99274.06
2023-05-06T12:03:14.824Z,99261.03
2023-05-06T12:04:18.909Z,99267.09
2023-05-06T12:05:23.560Z,99279.19
2023-05-06T12:07:33.362Z,56366.97
2023-05-06T12:09:37.384Z,56366.97
2023-05-06T12:11:41.616Z,56366.97
2023-05-06T12:13:46.238Z,56366.97
2023-05-06T12:15:51.362Z,56366.97
2023-05-06T12:17:54.488Z,56366.97
2023-05-06T12:19:57.208Z,56366.97
2023-05-06T12:22:15.674Z,56366.97
2023-05-06T12:25:15.844Z,99301.63
2023-05-06T12:27:30.465Z,56366.97
2023-05-06T12:30:32.521Z,99302.56
2023-05-06T12:31:37.125Z,99296.66
2023-05-06T12:32:59.266Z,99299.44
2023-05-06T12:34:02.177Z,99301.66
2023-05-06T12:35:07.756Z,99300.88
2023-05-06T12:36:11.266Z,99302.81
2023-05-06T12:37:26.198Z,99295.16
2023-05-06T12:38:29.226Z,99312.94
2023-05-06T12:40:34.685Z,56366.97
2023-05-06T12:42:38.722Z,56366.97
2023-05-06T12:44:41.788Z,56366.97
2023-05-06T12:47:03.010Z,56366.97
2023-05-06T12:49:05.956Z,56366.97
2023-05-06T12:51:20.811Z,56366.97
2023-05-06T12:53:32.659Z,56366.97
2023-05-06T13:03:06.762Z,56366.97
2023-05-06T13:05:10.134Z,56366.97
2023-05-06T13:07:12.836Z,56366.97
2023-05-06T13:08:35.024Z,99309.06
2023-05-06T13:09:46.990Z,99301.47
2023-05-06T13:10:49.954Z,99300.28
2023-05-06T13:11:54.000Z,99302.81
2023-05-06T13:12:57.107Z,99302.06
2023-05-06T13:14:01.566Z,99307.38
2023-05-06T13:15:06.496Z,99305.94
2023-05-06T13:16:10.283Z,99299.31
2023-05-06T13:17:14.904Z,99311.34
2023-05-06T13:18:17.677Z,99318.25
2023-05-06T13:19:32.526Z,99309.53
2023-05-06T13:20:36.868Z,99309.66
2023-05-06T13:21:41.784Z,99311.59
2023-05-06T13:22:54.188Z,99318.38
2023-05-06T13:23:59.636Z,99313.13
2023-05-06T13:25:04.287Z,99315.22
2023-05-06T13:26:08.827Z,99316.06
2023-05-06T13:27:12.719Z,99320.38
2023-05-06T13:28:15.184Z,99318.06
2023-05-06T13:29:18.680Z,99318.88
2023-05-06T13:30:21.753Z,99319.81
2023-05-06T13:31:26.354Z,99316.38
2023-05-06T13:32:30.605Z,99314.13
2023-05-06T13:33:34.532Z,99315.78
2023-05-06T13:34:38.526Z,99298.38
2023-05-06T13:35:41.539Z,99313.31
2023-05-06T13:36:46.916Z,99315.09
2023-05-06T13:37:49.699Z,99311.81
2023-05-06T13:38:53.601Z,99318.88
2023-05-06T13:39:56.595Z,99311.03
2023-05-06T13:41:02.126Z,99309.06
2023-05-06T13:42:07.490Z,99306.72
2023-05-06T13:43:11.720Z,99310.41
2023-05-06T13:44:15.623Z,99309.88
2023-05-06T13:45:18.387Z,99303.81
2023-05-06T13:46:23.513Z,99314.56
2023-05-06T13:47:27.129Z,99307.53
2023-05-06T13:48:30.883Z,99311.41
2023-05-06T13:49:34.957Z,99322.28
2023-05-06T13:50:37.969Z,99316.19
2023-05-06T13:51:41.846Z,99309.41
2023-05-06T13:52:45.152Z,99309.06
2023-05-06T13:53:48.939Z,99318.00
2023-05-06T13:54:51.827Z,99316.28
2023-05-06T13:55:56.031Z,99308.44
2023-05-06T13:57:01.768Z,99320.53
2023-05-06T13:58:07.055Z,99321.63
2023-05-06T13:59:12.025Z,99305.31
2023-05-06T14:00:15.943Z,99308.06
2023-05-06T14:01:19.922Z,99296.47
2023-05-06T14:02:26.187Z,99307.94
2023-05-06T14:03:30.330Z,99311.75
2023-05-06T14:04:33.009Z,99301.84
2023-05-06T14:05:37.273Z,99317.63
2023-05-06T14:06:41.171Z,99307.53
2023-05-06T14:07:44.294Z,99294.00
2023-05-06T14:08:49.630Z,99310.19
2023-05-06T14:09:52.538Z,99308.84
2023-05-06T14:10:57.089Z,99300.88
2023-05-06T14:12:03.080Z,99295.03
2023-05-06T14:13:07.270Z,99303.13
2023-05-06T14:14:11.458Z,99306.34
2023-05-06T14:15:15.335Z,99318.81
2023-05-06T14:16:19.572Z,99306.47
2023-05-06T14:17:22.392Z,99310.94
2023-05-06T14:18:27.331Z,99302.31
2023-05-06T14:19:30.427Z,99313.50
2023-05-06T14:20:34.615Z,99304.66
2023-05-06T14:21:37.449Z,99302.91
2023-05-06T14:22:42.952Z,99312.28
2023-05-06T14:23:46.936Z,99309.56
2023-05-06T14:24:49.848Z,99314.72
2023-05-06T14:25:53.830Z,99306.72
2023-05-06T14:26:57.206Z,99308.56
2023-05-06T14:28:02.596Z,99304.56
2023-05-06T14:29:05.564Z,99306.41
2023-05-06T14:30:10.257Z,99308.16
2023-05-06T14:31:13.241Z,99307.16
2023-05-06T14:32:17.345Z,99303.66
2023-05-06T14:33:20.552Z,99318.47
2023-05-06T14:34:24.799Z,99306.53
2023-05-06T14:35:30.182Z,99312.44
2023-05-06T14:36:34.113Z,99318.50
2023-05-06T14:37:38.108Z,99313.47
2023-05-06T14:38:42.107Z,99319.44
2023-05-06T14:39:44.937Z,99306.41
2023-05-06T14:40:48.859Z,99308.91
2023-05-06T14:41:51.678Z,99310.63
2023-05-06T14:42:55.444Z,99327.13
2023-05-06T14:43:59.939Z,99313.97
2023-05-06T14:45:04.259Z,99316.53